Snowmass, Colorado
Current Conditions -  °F | °C
As of 2:25 AM on Monday 24 Nov 2014 (Local Time) from KASE Reporting Station
Light Snow Light Snow  
Wind Chill: 17°   Ceiling: 5500
Heat Index: 17°   Visibility: 7mi
Dew Point: 13°   Wind: 0mph
Humidity: 84%   Direction: NA
Pressure: 30.04"   Gusts: NA
Location:  39.33°N, 106.99°W
Report Text: KASE 240925Z AUTO 00000KT 7SM -SN SCT033 OVC055 M08/M11 A3004 RMK AO2 P0000 T10831106
Loading
Personal Weather Stations






























Interactive Weather Map New forecast layout! Learn more

10-Day Weather Forecast

Advertisements
Track Severe Weather on mobile